Acton, California
Current Conditions -  °F | °C
As of 11:53 PM on Wednesday 26 Nov 2014 (Local Time) from KPMD Reporting Station
Clear Clear  
Wind Chill: 38°   Ceiling: Unl
Heat Index: 42°   Visibility: 10mi
Dew Point: 14°   Wind: 6mph
Humidity: 32%   Direction: 210°SSW
Pressure: 30.31"   Gusts: NA
Location:  34.47°N, 118.2°W
Report Text: KPMD 270753Z AUTO 21005KT 10SM CLR 06/M10 A3031 RMK AO2 SLP256 T00561100 402110011
Loading
Personal Weather Stations






























Interactive Weather Map New forecast layout! Learn more

10-Day Weather Forecast

Advertisements
Track Severe Weather on mobile